sensor_id;sensor_type;location;lat;lon;timestamp;temperature;humidity
8715;DHT22;4394;51.208;8.904;2023-12-22T00:01:27;5.00;99.90
8715;DHT22;4394;51.208;8.904;2023-12-22T00:04:15;5.00;99.90
8715;DHT22;4394;51.208;8.904;2023-12-22T00:07:03;5.10;99.90
8715;DHT22;4394;51.208;8.904;2023-12-22T00:09:53;5.00;99.90
8715;DHT22;4394;51.208;8.904;2023-12-22T00:12:41;5.00;99.90
8715;DHT22;4394;51.208;8.904;2023-12-22T00:15:29;5.00;99.90
8715;DHT22;4394;51.208;8.904;2023-12-22T00:18:17;5.00;99.90
8715;DHT22;4394;51.208;8.904;2023-12-22T00:21:09;5.00;99.90
8715;DHT22;4394;51.208;8.904;2023-12-22T00:23:57;5.00;99.90
8715;DHT22;4394;51.208;8.904;2023-12-22T00:26:46;5.00;99.90
8715;DHT22;4394;51.208;8.904;2023-12-22T00:29:35;5.10;99.90
8715;DHT22;4394;51.208;8.904;2023-12-22T00:32:24;5.00;99.90
8715;DHT22;4394;51.208;8.904;2023-12-22T00:35:12;5.00;99.90
8715;DHT22;4394;51.208;8.904;2023-12-22T00:38:00;5.00;99.90
8715;DHT22;4394;51.208;8.904;2023-12-22T00:40:48;4.90;99.90
8715;DHT22;4394;51.208;8.904;2023-12-22T00:43:38;5.00;99.90
8715;DHT22;4394;51.208;8.904;2023-12-22T00:46:26;4.90;99.90
8715;DHT22;4394;51.208;8.904;2023-12-22T00:49:15;4.90;99.90
8715;DHT22;4394;51.208;8.904;2023-12-22T00:52:04;4.90;99.90
8715;DHT22;4394;51.208;8.904;2023-12-22T00:54:52;5.00;99.90
8715;DHT22;4394;51.208;8.904;2023-12-22T00:57:41;4.90;99.90
8715;DHT22;4394;51.208;8.904;2023-12-22T01:00:30;4.90;99.90
8715;DHT22;4394;51.208;8.904;2023-12-22T01:03:18;4.90;99.90
8715;DHT22;4394;51.208;8.904;2023-12-22T01:06:07;4.90;99.90
8715;DHT22;4394;51.208;8.904;2023-12-22T01:08:55;4.80;99.90
8715;DHT22;4394;51.208;8.904;2023-12-22T01:11:43;4.80;99.90
8715;DHT22;4394;51.208;8.904;2023-12-22T01:14:31;4.80;99.90
8715;DHT22;4394;51.208;8.904;2023-12-22T01:17:21;4.80;99.90
8715;DHT22;4394;51.208;8.904;2023-12-22T01:20:10;4.80;99.90
8715;DHT22;4394;51.208;8.904;2023-12-22T01:22:58;4.80;99.90
8715;DHT22;4394;51.208;8.904;2023-12-22T01:25:47;4.80;99.90
8715;DHT22;4394;51.208;8.904;2023-12-22T01:28:35;4.80;99.90
8715;DHT22;4394;51.208;8.904;2023-12-22T01:31:23;4.80;99.90
8715;DHT22;4394;51.208;8.904;2023-12-22T01:34:13;4.80;99.90
8715;DHT22;4394;51.208;8.904;2023-12-22T01:37:01;4.80;99.90
8715;DHT22;4394;51.208;8.904;2023-12-22T01:39:49;4.80;99.90
8715;DHT22;4394;51.208;8.904;2023-12-22T01:42:37;4.80;99.90
8715;DHT22;4394;51.208;8.904;2023-12-22T01:45:27;4.80;99.90
8715;DHT22;4394;51.208;8.904;2023-12-22T01:48:15;4.80;99.90
8715;DHT22;4394;51.208;8.904;2023-12-22T01:51:06;4.80;99.90
8715;DHT22;4394;51.208;8.904;2023-12-22T01:53:55;4.80;99.90
8715;DHT22;4394;51.208;8.904;2023-12-22T01:56:43;4.80;99.90
8715;DHT22;4394;51.208;8.904;2023-12-22T01:59:32;4.80;99.90
8715;DHT22;4394;51.208;8.904;2023-12-22T02:02:22;4.80;99.90
8715;DHT22;4394;51.208;8.904;2023-12-22T02:05:10;4.80;99.90
8715;DHT22;4394;51.208;8.904;2023-12-22T02:08:01;4.70;99.90
8715;DHT22;4394;51.208;8.904;2023-12-22T02:10:49;4.70;99.90
8715;DHT22;4394;51.208;8.904;2023-12-22T02:13:37;4.80;99.90
8715;DHT22;4394;51.208;8.904;2023-12-22T02:16:31;4.70;99.90
8715;DHT22;4394;51.208;8.904;2023-12-22T02:19:27;4.70;99.90
8715;DHT22;4394;51.208;8.904;2023-12-22T02:22:23;4.70;99.90
8715;DHT22;4394;51.208;8.904;2023-12-22T02:25:13;4.70;99.90
8715;DHT22;4394;51.208;8.904;2023-12-22T02:28:05;4.70;99.90
8715;DHT22;4394;51.208;8.904;2023-12-22T02:30:57;4.70;99.90
8715;DHT22;4394;51.208;8.904;2023-12-22T02:33:49;4.70;99.90
8715;DHT22;4394;51.208;8.904;2023-12-22T02:36:42;4.70;99.90
8715;DHT22;4394;51.208;8.904;2023-12-22T02:39:30;4.70;99.90
8715;DHT22;4394;51.208;8.904;2023-12-22T02:42:20;4.70;99.90
8715;DHT22;4394;51.208;8.904;2023-12-22T02:45:14;4.70;99.90
8715;DHT22;4394;51.208;8.904;2023-12-22T02:48:03;4.70;99.90
8715;DHT22;4394;51.208;8.904;2023-12-22T02:50:52;4.70;99.90
8715;DHT22;4394;51.208;8.904;2023-12-22T02:53:40;4.70;99.90
8715;DHT22;4394;51.208;8.904;2023-12-22T02:56:28;4.80;99.90
8715;DHT22;4394;51.208;8.904;2023-12-22T02:59:17;4.80;99.90
8715;DHT22;4394;51.208;8.904;2023-12-22T03:02:05;4.80;99.90
8715;DHT22;4394;51.208;8.904;2023-12-22T03:04:54;4.80;99.90
8715;DHT22;4394;51.208;8.904;2023-12-22T03:07:42;4.70;99.90
8715;DHT22;4394;51.208;8.904;2023-12-22T03:10:30;4.70;99.90
8715;DHT22;4394;51.208;8.904;2023-12-22T03:13:18;4.80;99.90
8715;DHT22;4394;51.208;8.904;2023-12-22T03:16:09;4.70;99.90
8715;DHT22;4394;51.208;8.904;2023-12-22T03:18:57;4.70;99.90
8715;DHT22;4394;51.208;8.904;2023-12-22T03:21:46;4.70;99.90
8715;DHT22;4394;51.208;8.904;2023-12-22T03:24:34;4.70;99.90
8715;DHT22;4394;51.208;8.904;2023-12-22T03:27:23;4.70;99.90
8715;DHT22;4394;51.208;8.904;2023-12-22T03:30:12;4.60;99.90
8715;DHT22;4394;51.208;8.904;2023-12-22T03:33:02;4.70;99.90
8715;DHT22;4394;51.208;8.904;2023-12-22T03:35:51;4.60;99.90
8715;DHT22;4394;51.208;8.904;2023-12-22T03:38:39;4.70;99.90
8715;DHT22;4394;51.208;8.904;2023-12-22T03:41:27;4.60;99.90
8715;DHT22;4394;51.208;8.904;2023-12-22T03:44:16;4.60;99.90
8715;DHT22;4394;51.208;8.904;2023-12-22T03:47:04;4.70;99.90
8715;DHT22;4394;51.208;8.904;2023-12-22T03:49:54;4.70;99.90
8715;DHT22;4394;51.208;8.904;2023-12-22T03:52:42;4.70;99.90
8715;DHT22;4394;51.208;8.904;2023-12-22T03:55:31;4.70;99.90
8715;DHT22;4394;51.208;8.904;2023-12-22T03:58:19;4.70;99.90
8715;DHT22;4394;51.208;8.904;2023-12-22T04:01:07;4.70;99.90
8715;DHT22;4394;51.208;8.904;2023-12-22T04:03:56;4.70;99.90
8715;DHT22;4394;51.208;8.904;2023-12-22T04:06:45;4.60;99.90
8715;DHT22;4394;51.208;8.904;2023-12-22T04:09:33;4.60;99.90
8715;DHT22;4394;51.208;8.904;2023-12-22T04:12:21;4.70;99.90
8715;DHT22;4394;51.208;8.904;2023-12-22T04:15:09;4.60;99.90
8715;DHT22;4394;51.208;8.904;2023-12-22T04:17:58;4.50;99.90
8715;DHT22;4394;51.208;8.904;2023-12-22T04:20:46;4.40;99.90
8715;DHT22;4394;51.208;8.904;2023-12-22T04:23:38;4.30;99.90
8715;DHT22;4394;51.208;8.904;2023-12-22T04:26:26;4.30;99.90
8715;DHT22;4394;51.208;8.904;2023-12-22T04:29:14;4.30;99.90
8715;DHT22;4394;51.208;8.904;2023-12-22T04:32:03;4.30;99.90
8715;DHT22;4394;51.208;8.904;2023-12-22T04:34:51;4.30;99.90
8715;DHT22;4394;51.208;8.904;2023-12-22T04:37:39;4.30;99.90
8715;DHT22;4394;51.208;8.904;2023-12-22T04:40:29;4.40;99.90
8715;DHT22;4394;51.208;8.904;2023-12-22T04:43:17;4.40;99.90
8715;DHT22;4394;51.208;8.904;2023-12-22T04:46:05;4.40;99.90
8715;DHT22;4394;51.208;8.904;2023-12-22T04:48:54;4.30;99.90
8715;DHT22;4394;51.208;8.904;2023-12-22T04:51:42;4.30;99.90
8715;DHT22;4394;51.208;8.904;2023-12-22T04:54:30;4.30;99.90
8715;DHT22;4394;51.208;8.904;2023-12-22T04:57:20;4.30;99.90
8715;DHT22;4394;51.208;8.904;2023-12-22T05:00:09;4.20;99.90
8715;DHT22;4394;51.208;8.904;2023-12-22T05:02:57;4.20;99.90
8715;DHT22;4394;51.208;8.904;2023-12-22T05:05:45;4.20;99.90
8715;DHT22;4394;51.208;8.904;2023-12-22T05:08:34;4.20;99.90
8715;DHT22;4394;51.208;8.904;2023-12-22T05:11:22;4.20;99.90
8715;DHT22;4394;51.208;8.904;2023-12-22T05:14:12;4.30;99.90
8715;DHT22;4394;51.208;8.904;2023-12-22T05:17:00;4.30;99.90
8715;DHT22;4394;51.208;8.904;2023-12-22T05:19:48;4.40;99.90
8715;DHT22;4394;51.208;8.904;2023-12-22T05:22:36;4.30;99.90
8715;DHT22;4394;51.208;8.904;2023-12-22T05:25:25;4.40;99.90
8715;DHT22;4394;51.208;8.904;2023-12-22T05:28:13;4.40;99.90
8715;DHT22;4394;51.208;8.904;2023-12-22T05:31:03;4.50;99.90
8715;DHT22;4394;51.208;8.904;2023-12-22T05:33:51;4.40;99.90
8715;DHT22;4394;51.208;8.904;2023-12-22T05:36:39;4.50;99.90
8715;DHT22;4394;51.208;8.904;2023-12-22T05:39:27;4.50;99.90
8715;DHT22;4394;51.208;8.904;2023-12-22T05:42:15;4.40;99.90
8715;DHT22;4394;51.208;8.904;2023-12-22T05:45:04;4.40;99.90
8715;DHT22;4394;51.208;8.904;2023-12-22T05:47:54;4.50;99.90
8715;DHT22;4394;51.208;8.904;2023-12-22T05:50:43;4.40;99.90
8715;DHT22;4394;51.208;8.904;2023-12-22T05:53:31;4.40;99.90
8715;DHT22;4394;51.208;8.904;2023-12-22T05:56:20;4.40;99.90
8715;DHT22;4394;51.208;8.904;2023-12-22T05:59:08;4.40;99.90
8715;DHT22;4394;51.208;8.904;2023-12-22T06:01:56;4.40;99.90
8715;DHT22;4394;51.208;8.904;2023-12-22T06:04:47;4.40;99.90
8715;DHT22;4394;51.208;8.904;2023-12-22T06:07:35;4.40;99.90
8715;DHT22;4394;51.208;8.904;2023-12-22T06:10:23;4.40;99.90
8715;DHT22;4394;51.208;8.904;2023-12-22T06:13:11;4.40;99.90
8715;DHT22;4394;51.208;8.904;2023-12-22T06:16:00;4.40;99.90
8715;DHT22;4394;51.208;8.904;2023-12-22T06:18:48;4.40;99.90
8715;DHT22;4394;51.208;8.904;2023-12-22T06:21:38;4.50;99.90
8715;DHT22;4394;51.208;8.904;2023-12-22T06:24:28;4.50;99.90
8715;DHT22;4394;51.208;8.904;2023-12-22T06:27:16;4.50;99.90
8715;DHT22;4394;51.208;8.904;2023-12-22T06:30:05;4.50;99.90
8715;DHT22;4394;51.208;8.904;2023-12-22T06:32:54;4.50;99.90
8715;DHT22;4394;51.208;8.904;2023-12-22T06:35:42;4.60;99.90
8715;DHT22;4394;51.208;8.904;2023-12-22T06:38:33;4.60;99.90
8715;DHT22;4394;51.208;8.904;2023-12-22T06:41:21;4.60;99.90
8715;DHT22;4394;51.208;8.904;2023-12-22T06:44:14;4.60;99.90
8715;DHT22;4394;51.208;8.904;2023-12-22T06:47:02;4.60;99.90
8715;DHT22;4394;51.208;8.904;2023-12-22T06:49:52;4.60;99.90
8715;DHT22;4394;51.208;8.904;2023-12-22T06:52:40;4.60;99.90
8715;DHT22;4394;51.208;8.904;2023-12-22T06:55:30;4.60;99.90
8715;DHT22;4394;51.208;8.904;2023-12-22T06:58:18;4.60;99.90
8715;DHT22;4394;51.208;8.904;2023-12-22T07:01:08;4.60;99.90
8715;DHT22;4394;51.208;8.904;2023-12-22T07:03:57;4.60;99.90
8715;DHT22;4394;51.208;8.904;2023-12-22T07:06:45;4.70;99.90
8715;DHT22;4394;51.208;8.904;2023-12-22T07:09:34;4.60;99.90
8715;DHT22;4394;51.208;8.904;2023-12-22T07:12:24;4.60;99.90
8715;DHT22;4394;51.208;8.904;2023-12-22T07:15:13;4.70;99.90
8715;DHT22;4394;51.208;8.904;2023-12-22T07:18:01;4.70;99.90
8715;DHT22;4394;51.208;8.904;2023-12-22T07:20:50;4.70;99.90
8715;DHT22;4394;51.208;8.904;2023-12-22T07:23:38;4.80;99.90
8715;DHT22;4394;51.208;8.904;2023-12-22T07:26:27;4.70;99.90
8715;DHT22;4394;51.208;8.904;2023-12-22T07:29:16;4.80;99.90
8715;DHT22;4394;51.208;8.904;2023-12-22T07:32:05;4.80;99.90
8715;DHT22;4394;51.208;8.904;2023-12-22T07:34:53;4.80;99.90
8715;DHT22;4394;51.208;8.904;2023-12-22T07:37:41;4.80;99.90
8715;DHT22;4394;51.208;8.904;2023-12-22T07:40:30;4.80;99.90
8715;DHT22;4394;51.208;8.904;2023-12-22T07:43:18;4.80;99.90
8715;DHT22;4394;51.208;8.904;2023-12-22T07:46:07;4.90;99.90
8715;DHT22;4394;51.208;8.904;2023-12-22T07:48:57;4.90;99.90
8715;DHT22;4394;51.208;8.904;2023-12-22T07:51:46;4.90;99.90
8715;DHT22;4394;51.208;8.904;2023-12-22T07:54:34;4.90;99.90
8715;DHT22;4394;51.208;8.904;2023-12-22T07:57:22;4.90;99.90
8715;DHT22;4394;51.208;8.904;2023-12-22T08:00:11;5.00;99.90
8715;DHT22;4394;51.208;8.904;2023-12-22T08:03:01;5.00;99.90
8715;DHT22;4394;51.208;8.904;2023-12-22T08:05:49;5.00;99.90
8715;DHT22;4394;51.208;8.904;2023-12-22T08:08:37;5.00;99.90
8715;DHT22;4394;51.208;8.904;2023-12-22T08:11:25;5.00;99.90
8715;DHT22;4394;51.208;8.904;2023-12-22T08:14:13;5.10;99.90
8715;DHT22;4394;51.208;8.904;2023-12-22T08:17:01;5.10;99.90
8715;DHT22;4394;51.208;8.904;2023-12-22T08:19:51;5.10;99.90
8715;DHT22;4394;51.208;8.904;2023-12-22T08:22:40;5.10;99.90
8715;DHT22;4394;51.208;8.904;2023-12-22T08:25:32;5.10;99.90
8715;DHT22;4394;51.208;8.904;2023-12-22T08:28:20;5.20;99.90
8715;DHT22;4394;51.208;8.904;2023-12-22T08:31:09;5.10;99.90
8715;DHT22;4394;51.208;8.904;2023-12-22T08:33:57;5.20;99.90
8715;DHT22;4394;51.208;8.904;2023-12-22T08:36:46;5.10;99.90
8715;DHT22;4394;51.208;8.904;2023-12-22T08:39:34;5.10;99.90
8715;DHT22;4394;51.208;8.904;2023-12-22T08:42:22;5.00;99.90
8715;DHT22;4394;51.208;8.904;2023-12-22T08:45:11;4.90;99.90
8715;DHT22;4394;51.208;8.904;2023-12-22T08:47:59;4.80;99.90
8715;DHT22;4394;51.208;8.904;2023-12-22T08:50:47;4.80;99.90
8715;DHT22;4394;51.208;8.904;2023-12-22T08:53:38;4.70;99.90
8715;DHT22;4394;51.208;8.904;2023-12-22T08:56:26;4.70;99.90
8715;DHT22;4394;51.208;8.904;2023-12-22T08:59:15;4.60;99.90
8715;DHT22;4394;51.208;8.904;2023-12-22T09:02:03;4.50;99.90
8715;DHT22;4394;51.208;8.904;2023-12-22T09:04:52;4.50;99.90
8715;DHT22;4394;51.208;8.904;2023-12-22T09:07:41;4.50;99.90
8715;DHT22;4394;51.208;8.904;2023-12-22T09:10:30;4.50;99.90
8715;DHT22;4394;51.208;8.904;2023-12-22T09:13:19;4.60;99.90
8715;DHT22;4394;51.208;8.904;2023-12-22T09:16:08;4.60;99.90
8715;DHT22;4394;51.208;8.904;2023-12-22T09:18:56;4.60;99.90
8715;DHT22;4394;51.208;8.904;2023-12-22T09:21:45;4.60;99.90
8715;DHT22;4394;51.208;8.904;2023-12-22T09:24:32;4.60;99.90
8715;DHT22;4394;51.208;8.904;2023-12-22T09:27:22;4.60;99.90
8715;DHT22;4394;51.208;8.904;2023-12-22T09:30:10;4.60;99.90
8715;DHT22;4394;51.208;8.904;2023-12-22T09:32:59;4.60;99.90
8715;DHT22;4394;51.208;8.904;2023-12-22T09:35:47;4.50;99.90
8715;DHT22;4394;51.208;8.904;2023-12-22T09:38:35;4.40;99.90
8715;DHT22;4394;51.208;8.904;2023-12-22T09:41:23;4.30;99.90
8715;DHT22;4394;51.208;8.904;2023-12-22T09:44:13;4.20;99.90
8715;DHT22;4394;51.208;8.904;2023-12-22T09:47:04;4.20;99.90
8715;DHT22;4394;51.208;8.904;2023-12-22T09:49:53;4.20;99.90
8715;DHT22;4394;51.208;8.904;2023-12-22T09:52:43;4.20;99.90
8715;DHT22;4394;51.208;8.904;2023-12-22T09:55:32;4.10;99.90
8715;DHT22;4394;51.208;8.904;2023-12-22T09:58:22;4.20;99.90
8715;DHT22;4394;51.208;8.904;2023-12-22T10:01:12;4.20;99.90
8715;DHT22;4394;51.208;8.904;2023-12-22T10:04:00;4.20;99.90
8715;DHT22;4394;51.208;8.904;2023-12-22T10:06:50;4.20;99.90
8715;DHT22;4394;51.208;8.904;2023-12-22T10:09:39;4.30;99.90
8715;DHT22;4394;51.208;8.904;2023-12-22T10:12:29;4.40;99.90
8715;DHT22;4394;51.208;8.904;2023-12-22T10:15:19;4.50;99.90
8715;DHT22;4394;51.208;8.904;2023-12-22T10:18:12;4.50;99.90
8715;DHT22;4394;51.208;8.904;2023-12-22T10:21:01;4.60;99.90
8715;DHT22;4394;51.208;8.904;2023-12-22T10:23:49;4.60;99.90
8715;DHT22;4394;51.208;8.904;2023-12-22T10:26:37;4.60;99.90
8715;DHT22;4394;51.208;8.904;2023-12-22T10:29:26;4.60;99.90
8715;DHT22;4394;51.208;8.904;2023-12-22T10:32:14;4.60;99.90
8715;DHT22;4394;51.208;8.904;2023-12-22T10:35:04;4.60;99.90
8715;DHT22;4394;51.208;8.904;2023-12-22T10:37:55;4.60;99.90
8715;DHT22;4394;51.208;8.904;2023-12-22T10:40:46;4.50;99.90
8715;DHT22;4394;51.208;8.904;2023-12-22T10:43:38;4.50;99.90
8715;DHT22;4394;51.208;8.904;2023-12-22T10:46:30;4.60;99.90
8715;DHT22;4394;51.208;8.904;2023-12-22T10:49:22;4.60;99.90
8715;DHT22;4394;51.208;8.904;2023-12-22T10:52:15;4.60;99.90
8715;DHT22;4394;51.208;8.904;2023-12-22T10:55:05;4.60;99.90
8715;DHT22;4394;51.208;8.904;2023-12-22T10:57:53;4.70;99.90
8715;DHT22;4394;51.208;8.904;2023-12-22T11:00:44;4.60;99.90
8715;DHT22;4394;51.208;8.904;2023-12-22T11:03:34;4.60;99.90
8715;DHT22;4394;51.208;8.904;2023-12-22T11:06:26;4.70;99.90
8715;DHT22;4394;51.208;8.904;2023-12-22T11:09:17;4.60;99.90
8715;DHT22;4394;51.208;8.904;2023-12-22T11:12:07;4.60;99.90
8715;DHT22;4394;51.208;8.904;2023-12-22T11:14:56;4.60;99.90
8715;DHT22;4394;51.208;8.904;2023-12-22T11:17:46;4.60;99.90
8715;DHT22;4394;51.208;8.904;2023-12-22T11:20:37;4.70;99.90
8715;DHT22;4394;51.208;8.904;2023-12-22T11:23:26;4.70;99.90
8715;DHT22;4394;51.208;8.904;2023-12-22T11:26:17;4.70;99.90
8715;DHT22;4394;51.208;8.904;2023-12-22T11:29:06;4.80;99.90
8715;DHT22;4394;51.208;8.904;2023-12-22T11:31:55;4.80;99.90
8715;DHT22;4394;51.208;8.904;2023-12-22T11:34:46;4.80;99.90
8715;DHT22;4394;51.208;8.904;2023-12-22T11:37:35;4.80;99.90
8715;DHT22;4394;51.208;8.904;2023-12-22T11:40:23;4.80;99.90
8715;DHT22;4394;51.208;8.904;2023-12-22T11:43:13;4.70;99.90
8715;DHT22;4394;51.208;8.904;2023-12-22T11:46:02;4.70;99.90
8715;DHT22;4394;51.208;8.904;2023-12-22T11:48:52;4.60;99.90
8715;DHT22;4394;51.208;8.904;2023-12-22T11:51:43;4.60;99.90
8715;DHT22;4394;51.208;8.904;2023-12-22T11:54:44;4.60;99.90
8715;DHT22;4394;51.208;8.904;2023-12-22T11:57:34;4.60;99.90
8715;DHT22;4394;51.208;8.904;2023-12-22T12:03:18;4.50;99.90
8715;DHT22;4394;51.208;8.904;2023-12-22T12:06:31;4.50;99.90
8715;DHT22;4394;51.208;8.904;2023-12-22T12:09:46;4.60;99.90
8715;DHT22;4394;51.208;8.904;2023-12-22T12:12:34;4.60;99.90
8715;DHT22;4394;51.208;8.904;2023-12-22T12:15:23;4.60;99.90
8715;DHT22;4394;51.208;8.904;2023-12-22T12:18:12;4.70;99.90
8715;DHT22;4394;51.208;8.904;2023-12-22T12:21:06;4.80;99.90
8715;DHT22;4394;51.208;8.904;2023-12-22T12:23:55;4.80;99.90
8715;DHT22;4394;51.208;8.904;2023-12-22T12:26:43;4.90;99.90
8715;DHT22;4394;51.208;8.904;2023-12-22T12:29:32;4.90;99.90
8715;DHT22;4394;51.208;8.904;2023-12-22T12:32:23;4.90;99.90
8715;DHT22;4394;51.208;8.904;2023-12-22T12:35:12;4.90;99.90
8715;DHT22;4394;51.208;8.904;2023-12-22T12:38:04;4.90;99.90
8715;DHT22;4394;51.208;8.904;2023-12-22T12:40:52;5.00;99.90
8715;DHT22;4394;51.208;8.904;2023-12-22T12:43:42;4.90;99.90
8715;DHT22;4394;51.208;8.904;2023-12-22T12:46:34;4.90;99.90
8715;DHT22;4394;51.208;8.904;2023-12-22T12:49:23;4.90;99.90
8715;DHT22;4394;51.208;8.904;2023-12-22T12:52:15;4.90;99.90
8715;DHT22;4394;51.208;8.904;2023-12-22T12:55:06;5.00;99.90
8715;DHT22;4394;51.208;8.904;2023-12-22T12:57:55;5.00;99.90
8715;DHT22;4394;51.208;8.904;2023-12-22T13:00:43;5.00;99.90
8715;DHT22;4394;51.208;8.904;2023-12-22T13:03:31;4.90;99.90
8715;DHT22;4394;51.208;8.904;2023-12-22T13:06:20;4.90;99.90
8715;DHT22;4394;51.208;8.904;2023-12-22T13:09:09;4.90;99.90
8715;DHT22;4394;51.208;8.904;2023-12-22T13:11:58;5.00;99.90
8715;DHT22;4394;51.208;8.904;2023-12-22T13:14:47;5.00;99.90
8715;DHT22;4394;51.208;8.904;2023-12-22T13:17:36;5.00;99.90
8715;DHT22;4394;51.208;8.904;2023-12-22T13:20:27;5.10;99.90
8715;DHT22;4394;51.208;8.904;2023-12-22T13:23:17;5.00;99.90
8715;DHT22;4394;51.208;8.904;2023-12-22T13:26:06;5.00;99.90
8715;DHT22;4394;51.208;8.904;2023-12-22T13:28:58;5.00;99.90
8715;DHT22;4394;51.208;8.904;2023-12-22T13:31:47;5.00;99.90
8715;DHT22;4394;51.208;8.904;2023-12-22T13:34:35;5.10;99.90
8715;DHT22;4394;51.208;8.904;2023-12-22T13:37:23;5.20;99.90
8715;DHT22;4394;51.208;8.904;2023-12-22T13:40:14;5.40;99.90
8715;DHT22;4394;51.208;8.904;2023-12-22T13:43:03;5.60;99.90
8715;DHT22;4394;51.208;8.904;2023-12-22T13:45:53;5.60;99.90
8715;DHT22;4394;51.208;8.904;2023-12-22T13:48:42;5.60;99.90
8715;DHT22;4394;51.208;8.904;2023-12-22T13:51:39;5.70;99.90
8715;DHT22;4394;51.208;8.904;2023-12-22T13:54:32;5.80;99.90
8715;DHT22;4394;51.208;8.904;2023-12-22T13:57:20;5.80;99.90
8715;DHT22;4394;51.208;8.904;2023-12-22T14:00:24;5.80;99.90
8715;DHT22;4394;51.208;8.904;2023-12-22T14:03:14;5.90;99.90
8715;DHT22;4394;51.208;8.904;2023-12-22T14:06:03;5.90;99.90
8715;DHT22;4394;51.208;8.904;2023-12-22T14:08:55;5.90;99.90
8715;DHT22;4394;51.208;8.904;2023-12-22T14:11:43;6.00;99.90
8715;DHT22;4394;51.208;8.904;2023-12-22T14:14:43;6.00;99.90
8715;DHT22;4394;51.208;8.904;2023-12-22T14:17:32;6.00;99.90
8715;DHT22;4394;51.208;8.904;2023-12-22T14:20:21;6.10;99.90
8715;DHT22;4394;51.208;8.904;2023-12-22T14:23:10;6.10;99.90
8715;DHT22;4394;51.208;8.904;2023-12-22T14:26:03;6.00;99.90
8715;DHT22;4394;51.208;8.904;2023-12-22T14:28:52;6.00;99.90
8715;DHT22;4394;51.208;8.904;2023-12-22T14:31:40;6.10;99.90
8715;DHT22;4394;51.208;8.904;2023-12-22T14:34:29;6.10;99.90
8715;DHT22;4394;51.208;8.904;2023-12-22T14:37:20;6.20;99.90
8715;DHT22;4394;51.208;8.904;2023-12-22T14:40:09;6.20;99.90
8715;DHT22;4394;51.208;8.904;2023-12-22T14:42:57;6.30;99.90
8715;DHT22;4394;51.208;8.904;2023-12-22T14:45:46;6.30;99.90
8715;DHT22;4394;51.208;8.904;2023-12-22T14:48:34;6.30;99.90
8715;DHT22;4394;51.208;8.904;2023-12-22T14:51:22;6.40;99.90
8715;DHT22;4394;51.208;8.904;2023-12-22T14:54:11;6.40;99.90
8715;DHT22;4394;51.208;8.904;2023-12-22T14:56:59;6.40;99.90
8715;DHT22;4394;51.208;8.904;2023-12-22T14:59:48;6.40;99.90
8715;DHT22;4394;51.208;8.904;2023-12-22T15:02:36;6.40;99.90
8715;DHT22;4394;51.208;8.904;2023-12-22T15:05:24;6.40;99.90
8715;DHT22;4394;51.208;8.904;2023-12-22T15:08:19;6.20;99.90
8715;DHT22;4394;51.208;8.904;2023-12-22T15:11:09;6.40;99.90
8715;DHT22;4394;51.208;8.904;2023-12-22T15:13:57;6.30;99.90
8715;DHT22;4394;51.208;8.904;2023-12-22T15:16:46;6.30;99.90
8715;DHT22;4394;51.208;8.904;2023-12-22T15:19:40;6.30;99.90
8715;DHT22;4394;51.208;8.904;2023-12-22T15:22:29;6.30;99.90
8715;DHT22;4394;51.208;8.904;2023-12-22T15:25:17;6.30;99.90
8715;DHT22;4394;51.208;8.904;2023-12-22T15:28:07;6.20;99.90
8715;DHT22;4394;51.208;8.904;2023-12-22T15:30:56;6.20;99.90
8715;DHT22;4394;51.208;8.904;2023-12-22T15:33:44;6.20;99.90
8715;DHT22;4394;51.208;8.904;2023-12-22T15:36:32;6.20;99.90
8715;DHT22;4394;51.208;8.904;2023-12-22T15:39:20;6.30;99.90
8715;DHT22;4394;51.208;8.904;2023-12-22T15:42:09;6.30;99.90
8715;DHT22;4394;51.208;8.904;2023-12-22T15:44:59;6.30;99.90
8715;DHT22;4394;51.208;8.904;2023-12-22T15:47:47;6.20;99.90
8715;DHT22;4394;51.208;8.904;2023-12-22T15:50:35;6.30;99.90
8715;DHT22;4394;51.208;8.904;2023-12-22T15:53:23;6.40;99.90
8715;DHT22;4394;51.208;8.904;2023-12-22T15:56:12;6.30;99.90
8715;DHT22;4394;51.208;8.904;2023-12-22T15:59:00;6.20;99.90
8715;DHT22;4394;51.208;8.904;2023-12-22T16:01:50;6.30;99.90
8715;DHT22;4394;51.208;8.904;2023-12-22T16:04:38;6.30;99.90
8715;DHT22;4394;51.208;8.904;2023-12-22T16:07:27;6.40;99.90
8715;DHT22;4394;51.208;8.904;2023-12-22T16:10:17;6.40;99.90
8715;DHT22;4394;51.208;8.904;2023-12-22T16:13:05;6.50;99.90
8715;DHT22;4394;51.208;8.904;2023-12-22T16:15:55;6.60;99.90
8715;DHT22;4394;51.208;8.904;2023-12-22T16:18:45;6.70;99.90
8715;DHT22;4394;51.208;8.904;2023-12-22T16:21:40;6.80;99.90
8715;DHT22;4394;51.208;8.904;2023-12-22T16:24:28;6.90;99.90
8715;DHT22;4394;51.208;8.904;2023-12-22T16:27:16;7.00;99.90
8715;DHT22;4394;51.208;8.904;2023-12-22T16:30:06;7.00;99.90
8715;DHT22;4394;51.208;8.904;2023-12-22T16:32:55;7.10;99.90
8715;DHT22;4394;51.208;8.904;2023-12-22T16:35:45;7.10;99.90
8715;DHT22;4394;51.208;8.904;2023-12-22T16:38:34;7.20;99.90
8715;DHT22;4394;51.208;8.904;2023-12-22T16:41:23;7.20;99.90
8715;DHT22;4394;51.208;8.904;2023-12-22T16:44:12;7.30;99.90
8715;DHT22;4394;51.208;8.904;2023-12-22T16:47:00;7.30;99.90
8715;DHT22;4394;51.208;8.904;2023-12-22T17:55:22;5.50;99.90
8715;DHT22;4394;51.208;8.904;2023-12-22T17:58:10;5.30;99.90
8715;DHT22;4394;51.208;8.904;2023-12-22T18:00:58;5.40;99.90
8715;DHT22;4394;51.208;8.904;2023-12-22T18:03:45;5.30;99.90
8715;DHT22;4394;51.208;8.904;2023-12-22T18:06:38;5.20;99.90
8715;DHT22;4394;51.208;8.904;2023-12-22T18:09:29;5.30;99.90
8715;DHT22;4394;51.208;8.904;2023-12-22T18:12:22;5.20;99.90
8715;DHT22;4394;51.208;8.904;2023-12-22T18:15:23;5.20;99.90
8715;DHT22;4394;51.208;8.904;2023-12-22T18:18:11;5.20;99.90
8715;DHT22;4394;51.208;8.904;2023-12-22T18:20:59;5.20;99.90
8715;DHT22;4394;51.208;8.904;2023-12-22T18:23:47;5.20;99.90
8715;DHT22;4394;51.208;8.904;2023-12-22T18:26:35;5.20;99.90
8715;DHT22;4394;51.208;8.904;2023-12-22T18:29:25;5.20;99.90
8715;DHT22;4394;51.208;8.904;2023-12-22T18:32:13;5.30;99.90
8715;DHT22;4394;51.208;8.904;2023-12-22T18:35:01;5.30;99.90
8715;DHT22;4394;51.208;8.904;2023-12-22T18:37:49;5.40;99.90
8715;DHT22;4394;51.208;8.904;2023-12-22T18:40:38;5.50;99.90
8715;DHT22;4394;51.208;8.904;2023-12-22T18:43:26;5.60;99.90
8715;DHT22;4394;51.208;8.904;2023-12-22T18:46:15;5.70;99.90
8715;DHT22;4394;51.208;8.904;2023-12-22T18:49:04;5.70;99.90
8715;DHT22;4394;51.208;8.904;2023-12-22T18:51:52;5.70;99.90
8715;DHT22;4394;51.208;8.904;2023-12-22T18:54:39;5.80;99.90
8715;DHT22;4394;51.208;8.904;2023-12-22T18:57:29;5.90;99.90
8715;DHT22;4394;51.208;8.904;2023-12-22T19:00:17;5.90;99.90
8715;DHT22;4394;51.208;8.904;2023-12-22T19:03:06;6.00;99.90
8715;DHT22;4394;51.208;8.904;2023-12-22T19:05:54;6.00;99.90
8715;DHT22;4394;51.208;8.904;2023-12-22T19:08:42;6.00;99.90
8715;DHT22;4394;51.208;8.904;2023-12-22T19:11:30;6.00;99.90
8715;DHT22;4394;51.208;8.904;2023-12-22T19:14:18;6.00;99.90
8715;DHT22;4394;51.208;8.904;2023-12-22T19:17:06;5.90;99.90
8715;DHT22;4394;51.208;8.904;2023-12-22T19:19:55;5.90;99.90
8715;DHT22;4394;51.208;8.904;2023-12-22T19:22:43;5.80;99.90
8715;DHT22;4394;51.208;8.904;2023-12-22T19:25:32;5.70;99.90
8715;DHT22;4394;51.208;8.904;2023-12-22T19:28:20;5.70;99.90
8715;DHT22;4394;51.208;8.904;2023-12-22T19:31:08;5.70;99.90
8715;DHT22;4394;51.208;8.904;2023-12-22T19:33:56;5.60;99.90
8715;DHT22;4394;51.208;8.904;2023-12-22T19:40:58;5.70;99.90
8715;DHT22;4394;51.208;8.904;2023-12-22T19:43:46;5.70;99.90
8715;DHT22;4394;51.208;8.904;2023-12-22T19:46:33;5.70;99.90
8715;DHT22;4394;51.208;8.904;2023-12-22T19:49:21;5.70;99.90
8715;DHT22;4394;51.208;8.904;2023-12-22T19:52:10;5.80;99.90
8715;DHT22;4394;51.208;8.904;2023-12-22T19:54:58;5.80;99.90